Airfield :







YOU CAN JOIN US ON...

 
LOGIN :

Register | Disclaimer

   EN    FR    IT 

 









Legend :    VFR   Marginal VFR   IFR   Intensive IFR   Very Intensive IFR
Visi :
Ceiling :
>= 8 km
>= 3000ft
5 to 8 km
1000 to 3000 ft
1500m to 5 km
500 to 1000 ft
800 to 1500m
200 to 500 ft
< 800m
< 200 ft
Symbols :   Thunderstorms  Fog  Heavy snow  Heavy precipitations  Wind > 20 kt






- Airport Elevation : 792 ft
- IATA code : YSC


CYSC - Sherbrooke

CURRENT METAR :
  • 291935Z AUTO 29008KT 260V340 9SM -SN OVC017 M11/M15 A3012 RMK SLP220

EXPIRED METARs :
  • 291929Z AUTO 28009KT 260V340 9SM OVC017 M11/M15 A3012 RMK SLP220
  • 291908Z AUTO 30008KT 260V340 9SM -SN OVC017 M11/M15 A3012 RMK SLP219
  • 291845Z AUTO 30009KT 9SM -SN OVC017 M11/M15 A3012 RMK SLP218
  • 291824Z AUTO 28008KT 9SM -SN OVC017 M12/M16 A3011 RMK SLP217
  • 291800Z AUTO 30011KT 270V330 9SM OVC017 M11/M16 A3011 RMK SLP216
  • 291743Z AUTO 29008KT 9SM -SN BKN017 M12/M16 A3011 RMK SLP216
  • 291700Z AUTO 30010KT 9SM -SN BKN017 M12/M16 A3011 RMK SLP216

TAF TAF CYSC
Valid from the 29 at 18:00 until the 30 at 03:00 UTC


291739Z 2918/3003 30010KT P6SM -SN BKN015
TEMPO 2918/2921 P6SM NSW BKN030
FM292100 30010KT P6SM SCT020
TEMPO 2921/3003 BKN020
BECMG 2922/2924 31005KT RMK FCST BASED ON AUTO OBS. NXT FCST BY 300000Z



MET'MAP, your aeronautical weather chart ! - Copyright ORBIFLY December 2007 - Disclaimer

ORBIFLY MET'MAP TEAM :

Programming & Development : Alexandra Zaïnal
Concept & original design : Baudouin d'Aumeries
Assistance for programming : Marc-Olivier Méhu
Technical & hardware support : Manuel Goepfert

Contact : metmap@orbifly.com




SOURCES & CREDITS :

   NOAA